createdAt,value
2023-02-02T00:00:31.530Z,21.58
2023-02-02T00:05:33.778Z,20.52
2023-02-02T00:10:35.986Z,19.15
2023-02-02T00:15:38.443Z,21.17
2023-02-02T00:20:40.652Z,19.90
2023-02-02T00:25:43.218Z,19.92
2023-02-02T00:30:45.891Z,23.40
2023-02-02T00:35:48.110Z,23.92
2023-02-02T00:40:50.550Z,20.58
2023-02-02T00:45:52.800Z,19.17
2023-02-02T00:50:55.339Z,17.77
2023-02-02T00:55:57.615Z,21.00
2023-02-02T01:00:59.914Z,22.98
2023-02-02T01:06:02.087Z,19.98
2023-02-02T01:11:04.428Z,20.48
2023-02-02T01:16:06.895Z,19.48
2023-02-02T01:21:10.357Z,21.08
2023-02-02T01:26:13.065Z,20.85
2023-02-02T01:31:16.905Z,18.02
2023-02-02T01:36:20.187Z,21.52
2023-02-02T01:41:23.902Z,18.92
2023-02-02T01:46:27.780Z,17.13
2023-02-02T01:51:36.852Z,19.90
2023-02-02T01:56:42.002Z,18.60
2023-02-02T02:01:44.613Z,20.17
2023-02-02T02:06:48.543Z,20.58
2023-02-02T02:11:53.090Z,18.00
2023-02-02T02:17:07.293Z,24.00
2023-02-02T02:22:36.791Z,19.02
2023-02-02T02:27:58.799Z,19.83
2023-02-02T02:33:21.339Z,19.15
2023-02-02T02:38:30.889Z,25.30
2023-02-02T02:43:36.714Z,20.77
2023-02-02T02:48:39.593Z,19.67
2023-02-02T02:53:41.872Z,22.73
2023-02-02T02:58:49.250Z,22.02
2023-02-02T03:09:20.094Z,20.55
2023-02-02T03:14:22.306Z,25.95
2023-02-02T03:19:24.467Z,24.17
2023-02-02T03:24:26.648Z,23.20
2023-02-02T03:29:28.980Z,22.55
2023-02-02T03:34:31.223Z,27.33
2023-02-02T03:39:33.365Z,30.35
2023-02-02T03:44:35.552Z,26.48
2023-02-02T03:49:37.775Z,23.42
2023-02-02T03:54:40.029Z,24.27
2023-02-02T03:59:42.177Z,25.50
2023-02-02T04:04:44.413Z,28.08
2023-02-02T04:09:46.560Z,33.60
2023-02-02T04:14:48.754Z,27.17
2023-02-02T04:19:54.092Z,21.75
2023-02-02T04:24:56.326Z,27.05
2023-02-02T04:29:58.520Z,26.95
2023-02-02T04:35:00.827Z,24.40
2023-02-02T04:40:02.995Z,23.52
2023-02-02T04:45:06.168Z,22.95
2023-02-02T04:50:09.231Z,26.35
2023-02-02T04:55:11.449Z,22.60
2023-02-02T05:00:14.635Z,21.50
2023-02-02T05:05:17.019Z,22.15
2023-02-02T05:10:19.234Z,23.95
2023-02-02T05:15:22.255Z,26.33
2023-02-02T05:20:24.630Z,21.38
2023-02-02T05:25:27.131Z,21.85
2023-02-02T05:30:29.444Z,20.52
2023-02-02T05:35:31.671Z,22.20
2023-02-02T05:40:35.200Z,23.35
2023-02-02T05:45:37.561Z,24.42
2023-02-02T05:50:39.969Z,22.23
2023-02-02T05:55:42.165Z,27.13
2023-02-02T06:00:44.454Z,23.48
2023-02-02T06:05:46.820Z,22.88
2023-02-02T06:10:49.477Z,24.05
2023-02-02T06:15:51.790Z,21.05
2023-02-02T06:20:57.808Z,29.92
2023-02-02T06:26:00.964Z,22.55
2023-02-02T06:31:07.051Z,24.77
2023-02-02T06:36:09.226Z,24.83
2023-02-02T06:41:11.379Z,27.05
2023-02-02T06:46:13.634Z,27.85
2023-02-02T06:51:16.063Z,23.67
2023-02-02T06:56:18.493Z,21.83
2023-02-02T07:01:20.888Z,27.45
2023-02-02T07:06:24.863Z,29.15
2023-02-02T07:11:27.089Z,24.80
2023-02-02T07:16:29.390Z,23.98
2023-02-02T07:21:36.329Z,26.20
2023-02-02T07:26:39.477Z,22.98
2023-02-02T07:31:41.763Z,24.27
2023-02-02T07:36:44.001Z,24.35
2023-02-02T07:41:46.408Z,24.92
2023-02-02T07:46:59.241Z,33.08
2023-02-02T07:52:01.477Z,23.77
2023-02-02T07:57:03.771Z,23.73
2023-02-02T08:02:06.299Z,32.85
2023-02-02T08:07:08.630Z,28.45
2023-02-02T08:12:10.787Z,25.10
2023-02-02T08:17:13.584Z,33.53
2023-02-02T08:22:15.841Z,27.52
2023-02-02T08:27:18.037Z,36.40
2023-02-02T08:32:20.219Z,30.58
2023-02-02T08:37:22.485Z,28.42
2023-02-02T08:42:24.727Z,27.33
2023-02-02T08:47:30.887Z,24.48
2023-02-02T08:52:33.394Z,28.55
2023-02-02T08:57:35.666Z,26.17
2023-02-02T09:02:37.845Z,26.60
2023-02-02T09:07:40.271Z,26.08
2023-02-02T09:12:42.415Z,27.65
2023-02-02T09:17:45.422Z,28.25
2023-02-02T09:22:47.758Z,23.80
2023-02-02T09:27:49.968Z,25.35
2023-02-02T09:32:52.271Z,27.85
2023-02-02T09:37:54.429Z,23.17
2023-02-02T09:43:03.257Z,29.08
2023-02-02T09:48:08.959Z,26.92
2023-02-02T09:53:13.424Z,26.02
2023-02-02T09:58:18.663Z,26.67
2023-02-02T10:03:28.536Z,26.27
2023-02-02T10:08:37.053Z,30.00
2023-02-02T10:13:39.429Z,27.02
2023-02-02T10:18:48.737Z,26.33
2023-02-02T10:23:51.632Z,24.10
2023-02-02T10:29:02.701Z,29.42
2023-02-02T10:34:10.566Z,27.52
2023-02-02T10:39:25.493Z,20.20
2023-02-02T10:44:31.293Z,26.98
2023-02-02T10:49:40.453Z,23.42
2023-02-02T10:54:57.110Z,22.50
2023-02-02T11:00:15.612Z,23.27
2023-02-02T11:05:41.511Z,23.42
2023-02-02T11:10:45.016Z,27.38
2023-02-02T11:15:47.527Z,24.15
2023-02-02T11:20:50.365Z,26.80
2023-02-02T11:26:00.226Z,24.85
2023-02-02T11:31:02.574Z,27.20
2023-02-02T11:36:21.267Z,29.00
2023-02-02T11:41:23.688Z,25.02
2023-02-02T11:46:34.968Z,31.50
2023-02-02T11:51:37.166Z,29.73
2023-02-02T11:56:39.503Z,26.02
2023-02-02T12:01:42.362Z,30.10
2023-02-02T12:06:44.635Z,24.75
2023-02-02T12:12:04.945Z,30.08
2023-02-02T12:17:10.238Z,25.55
2023-02-02T12:22:27.727Z,27.35
2023-02-02T12:27:33.642Z,23.52
2023-02-02T12:32:50.893Z,25.02
2023-02-02T12:37:59.340Z,25.88
2023-02-02T12:43:13.843Z,27.33
2023-02-02T12:48:23.945Z,27.35
2023-02-02T12:53:41.328Z,28.10
2023-02-02T12:58:56.373Z,30.95
2023-02-02T13:04:13.959Z,27.58
2023-02-02T13:09:30.633Z,26.25
2023-02-02T13:14:35.813Z,28.13
2023-02-02T13:19:41.996Z,27.15
2023-02-02T13:24:47.002Z,28.38
2023-02-02T13:29:49.329Z,26.80
2023-02-02T13:34:55.472Z,25.08
2023-02-02T13:40:23.614Z,30.52
2023-02-02T13:45:28.946Z,31.02
2023-02-02T13:50:34.324Z,23.90
2023-02-02T13:56:02.528Z,25.38
2023-02-02T14:01:06.776Z,26.38
2023-02-02T14:06:08.966Z,25.73
2023-02-02T14:11:16.530Z,25.45
2023-02-02T14:16:42.794Z,28.15
2023-02-02T14:21:44.941Z,29.90
2023-02-02T14:26:48.702Z,21.23
2023-02-02T14:31:54.420Z,24.20
2023-02-02T14:37:02.640Z,26.73
2023-02-02T14:42:36.833Z,29.02
2023-02-02T14:47:45.234Z,27.30
2023-02-02T14:52:57.029Z,23.25
2023-02-02T14:58:00.837Z,21.98
2023-02-02T15:03:21.845Z,21.00
2023-02-02T15:08:27.879Z,25.70
2023-02-02T15:13:37.919Z,21.20
2023-02-02T15:18:43.814Z,24.90
2023-02-02T15:23:46.968Z,23.98
2023-02-02T15:28:52.370Z,25.63
2023-02-02T15:33:58.698Z,40.10
2023-02-02T15:39:08.907Z,20.88
2023-02-02T15:44:21.314Z,22.52
2023-02-02T15:49:35.439Z,22.95
2023-02-02T15:54:38.545Z,27.77
2023-02-02T15:59:41.554Z,21.80
2023-02-02T16:04:44.052Z,28.00
2023-02-02T16:09:46.429Z,21.40
2023-02-02T16:14:53.266Z,19.55
2023-02-02T16:20:01.069Z,23.60
2023-02-02T16:25:11.186Z,19.88
2023-02-02T16:30:23.672Z,19.33
2023-02-02T16:35:46.049Z,18.15
2023-02-02T16:40:48.301Z,22.17
2023-02-02T16:45:55.200Z,18.70
2023-02-02T16:51:07.484Z,19.90
2023-02-02T16:56:24.762Z,18.00
2023-02-02T17:01:39.096Z,23.00
2023-02-02T17:06:53.059Z,24.55
2023-02-02T17:11:57.359Z,21.27
2023-02-02T17:17:09.231Z,25.60
2023-02-02T17:22:15.247Z,18.77
2023-02-02T17:27:37.562Z,22.13
2023-02-02T17:32:45.052Z,21.40
2023-02-02T17:37:47.557Z,19.77
2023-02-02T17:42:55.066Z,23.73
2023-02-02T17:48:00.984Z,17.33
2023-02-02T17:53:10.671Z,21.65
2023-02-02T17:58:15.286Z,22.75
2023-02-02T18:03:20.868Z,19.38
2023-02-02T18:08:27.642Z,21.27
2023-02-02T18:13:29.769Z,19.90
2023-02-02T18:18:38.403Z,22.83
2023-02-02T18:23:49.164Z,18.30
2023-02-02T18:28:55.553Z,21.00
2023-02-02T18:33:57.864Z,22.95
2023-02-02T18:39:07.901Z,19.77
2023-02-02T18:44:18.137Z,24.70
2023-02-02T18:54:26.834Z,20.10
2023-02-02T18:59:29.937Z,22.58
2023-02-02T19:04:32.115Z,23.73
2023-02-02T19:09:36.841Z,26.90
2023-02-02T19:14:39.100Z,28.92
2023-02-02T19:19:43.246Z,24.93
2023-02-02T19:24:45.453Z,24.13
2023-02-02T19:29:51.767Z,26.67
2023-02-02T19:34:55.161Z,27.15
2023-02-02T19:40:09.518Z,26.95
2023-02-02T19:45:27.245Z,28.30
2023-02-02T19:50:33.030Z,26.92
2023-02-02T19:55:36.669Z,21.50
2023-02-02T20:00:43.910Z,28.33
2023-02-02T20:05:47.158Z,30.25
2023-02-02T20:10:49.460Z,22.42
2023-02-02T20:15:52.771Z,24.70
2023-02-02T20:20:56.130Z,27.17
2023-02-02T20:25:59.119Z,28.75
2023-02-02T20:31:05.186Z,27.90
2023-02-02T20:36:26.089Z,29.42
2023-02-02T20:41:28.309Z,28.65
2023-02-02T20:46:30.457Z,30.58
2023-02-02T20:51:32.744Z,31.35
2023-02-02T20:56:35.137Z,31.00
2023-02-02T21:01:37.312Z,32.83
2023-02-02T21:06:40.343Z,37.38
2023-02-02T21:11:43.140Z,35.15
2023-02-02T21:16:45.389Z,35.85
2023-02-02T21:21:47.535Z,35.22
2023-02-02T21:26:52.153Z,34.25
2023-02-02T21:31:59.032Z,33.97
2023-02-02T21:37:01.420Z,38.15
2023-02-02T21:42:09.664Z,46.70
2023-02-02T21:47:30.847Z,36.22
2023-02-02T21:52:33.420Z,39.63
2023-02-02T21:57:36.736Z,40.13
2023-02-02T22:02:43.351Z,39.78
2023-02-02T22:07:47.918Z,39.28
2023-02-02T22:12:50.260Z,41.30
2023-02-02T22:17:52.464Z,41.25
2023-02-02T22:22:54.620Z,41.53
2023-02-02T22:27:58.183Z,43.38
2023-02-02T22:33:00.398Z,44.33
2023-02-02T22:38:03.059Z,45.85
2023-02-02T22:43:06.421Z,49.42
2023-02-02T22:48:08.625Z,52.83
2023-02-02T22:53:11.080Z,44.35
2023-02-02T22:58:13.329Z,38.88
2023-02-02T23:03:15.496Z,42.03
2023-02-02T23:08:17.714Z,41.88
2023-02-02T23:13:20.565Z,31.58
2023-02-02T23:18:23.509Z,36.92
2023-02-02T23:23:25.663Z,28.52
2023-02-02T23:28:27.885Z,28.67
2023-02-02T23:33:30.000Z,29.23
2023-02-02T23:38:32.128Z,29.02
2023-02-02T23:43:34.225Z,26.35
2023-02-02T23:48:36.668Z,24.42
2023-02-02T23:53:39.019Z,29.75
2023-02-02T23:58:41.789Z,28.38
